Time;durP1;ratioP1;P1;durP2;ratioP2;P2;SDS_P1;SDS_P2;PMS_P1;PMS_P2;Temp;Humidity;BMP_temperature;BMP_pressure;BME280_temperature;BME280_humidity;BME280_pressure;Samples;Min_cycle;Max_cycle;Signal;HPM_P1;HPM_P2
2021/10/01 11:18:13;;;;;;;3.03;1.20;;;14.90;99.90;;;;;;5091214;28;21026;-80
2021/10/01 11:20:38;;;;;;;3.80;1.33;;;14.90;99.90;;;;;;5091252;28;20175;-78
2021/10/01 11:23:15;;;;;;;2.13;1.20;;;15.00;99.90;;;;;;5091146;28;20179;-77
2021/10/01 11:25:43;;;;;;;2.70;1.42;;;15.00;99.90;;;;;;5091071;28;20520;-78
2021/10/01 11:28:09;;;;;;;2.53;1.73;;;15.00;99.90;;;;;;5091103;28;20251;-78
2021/10/01 11:30:38;;;;;;;1.48;1.38;;;15.00;99.90;;;;;;5089851;28;20623;-73
2021/10/01 11:33:09;;;;;;;4.75;1.55;;;15.10;99.90;;;;;;5090827;28;20616;-75
2021/10/01 11:35:47;;;;;;;3.38;1.80;;;15.20;99.90;;;;;;5090840;28;20610;-76
2021/10/01 11:38:28;;;;;;;4.10;1.30;;;15.20;99.90;;;;;;5090638;28;20187;-77
2021/10/01 11:41:05;;;;;;;6.25;1.60;;;15.20;99.90;;;;;;5090631;28;20623;-75
2021/10/01 11:43:31;;;;;;;1.20;1.20;;;15.20;99.90;;;;;;5089330;28;20167;-76
2021/10/01 11:45:57;;;;;;;4.00;1.48;;;15.20;99.90;;;;;;5090497;28;20152;-75
2021/10/01 11:48:33;;;;;;;3.40;2.45;;;15.30;99.90;;;;;;5089138;28;20175;-76
2021/10/01 11:50:58;;;;;;;1.30;1.20;;;15.30;99.90;;;;;;5090327;28;20170;-75
2021/10/01 11:53:34;;;;;;;1.13;1.13;;;15.40;99.90;;;;;;5090285;28;20171;-75
2021/10/01 11:56:07;;;;;;;1.95;1.85;;;15.50;99.90;;;;;;5090271;28;20219;-76
2021/10/01 11:58:35;;;;;;;2.17;1.70;;;15.50;99.90;;;;;;5090265;28;20214;-77
2021/10/01 12:01:15;;;;;;;3.70;1.38;;;15.50;99.90;;;;;;5090273;28;20259;-79
2021/10/01 12:03:53;;;;;;;2.80;2.15;;;15.60;99.90;;;;;;5090125;28;20247;-77
2021/10/01 12:06:28;;;;;;;4.38;1.30;;;15.60;99.90;;;;;;5090048;28;20170;-77
2021/10/01 12:08:55;;;;;;;1.75;1.65;;;15.70;99.90;;;;;;5089992;28;20166;-76
2021/10/01 12:11:37;;;;;;;2.22;1.48;;;15.70;99.90;;;;;;5089917;28;20230;-76
2021/10/01 12:14:09;;;;;;;2.75;1.40;;;15.80;99.90;;;;;;5089946;28;20255;-77
2021/10/01 12:16:35;;;;;;;10.20;1.52;;;15.90;99.90;;;;;;5089560;28;20219;-77
2021/10/01 12:19:05;;;;;;;2.72;1.42;;;15.90;99.90;;;;;;5088529;28;20167;-76
2021/10/01 12:21:34;;;;;;;1.20;1.20;;;15.90;99.90;;;;;;5088591;28;20163;-78
2021/10/01 12:24:06;;;;;;;3.63;1.40;;;16.10;99.90;;;;;;5089747;28;20172;-78
2021/10/01 12:26:35;;;;;;;1.77;1.25;;;16.10;99.90;;;;;;5089840;28;20152;-78
2021/10/01 12:29:09;;;;;;;3.33;1.20;;;16.20;99.90;;;;;;5077579;28;20168;-77
2021/10/01 12:31:45;;;;;;;5.30;1.50;;;16.30;99.90;;;;;;5076157;28;20164;-76
2021/10/01 12:34:19;;;;;;;2.08;1.65;;;16.50;99.90;;;;;;5076065;28;20518;-75
2021/10/01 12:36:52;;;;;;;2.47;1.38;;;16.60;99.90;;;;;;5074836;28;20192;-76
2021/10/01 12:39:21;;;;;;;2.13;1.75;;;16.70;99.90;;;;;;5076040;28;20497;-76
2021/10/01 12:41:58;;;;;;;3.78;1.75;;;16.80;99.90;;;;;;5074550;28;20164;-77
2021/10/01 12:44:24;;;;;;;4.03;1.60;;;17.00;99.90;;;;;;5074975;28;20164;-76
2021/10/01 12:46:52;;;;;;;2.45;1.35;;;17.20;99.90;;;;;;5076145;28;20636;-77
2021/10/01 12:49:22;;;;;;;3.33;1.30;;;17.30;99.90;;;;;;5075705;28;20176;-76
2021/10/01 12:52:12;;;;;;;3.33;1.20;;;17.30;99.90;;;;;;5075951;28;20196;-76
2021/10/01 12:54:45;;;;;;;1.83;0.90;;;17.30;99.90;;;;;;5075915;28;20198;-77
2021/10/01 12:57:31;;;;;;;1.77;1.60;;;17.50;99.90;;;;;;5075774;28;20218;-76
2021/10/01 12:59:58;;;;;;;2.13;1.35;;;17.20;99.90;;;;;;5075910;28;20263;-77
2021/10/01 13:02:47;;;;;;;1.33;1.10;;;17.30;99.90;;;;;;5076050;28;20214;-77
2021/10/01 13:05:35;;;;;;;3.88;1.40;;;17.30;99.90;;;;;;5075801;28;20217;-77
2021/10/01 13:08:02;;;;;;;1.63;1.25;;;17.40;99.90;;;;;;5074554;28;20169;-77
2021/10/01 13:10:30;;;;;;;2.65;1.20;;;17.60;99.90;;;;;;5075589;28;20247;-77
2021/10/01 13:12:58;;;;;;;6.18;1.20;;;17.80;99.90;;;;;;5074348;28;20177;-77
2021/10/01 13:15:25;;;;;;;2.20;1.45;;;17.90;99.90;;;;;;5075453;28;20191;-77
2021/10/01 13:18:07;;;;;;;3.88;1.52;;;18.00;99.90;;;;;;5075505;28;20602;-76
2021/10/01 13:20:40;;;;;;;2.80;1.70;;;18.10;99.90;;;;;;5075285;28;20175;-74
2021/10/01 13:23:15;;;;;;;1.10;1.10;;;18.20;99.90;;;;;;5075162;28;20234;-74
2021/10/01 13:26:11;;;;;;;2.38;1.67;;;18.30;99.90;;;;;;5075369;28;20171;-77
2021/10/01 13:28:37;;;;;;;2.40;1.00;;;18.40;99.90;;;;;;5075018;28;20223;-74
2021/10/01 13:31:03;;;;;;;2.42;1.10;;;18.50;99.90;;;;;;5075120;28;20173;-74
2021/10/01 13:33:29;;;;;;;4.32;1.38;;;18.50;99.90;;;;;;5074857;28;20176;-74
2021/10/01 13:35:57;;;;;;;2.53;1.25;;;18.60;99.90;;;;;;5073602;28;20283;-74
2021/10/01 13:38:43;;;;;;;1.77;1.38;;;18.60;99.90;;;;;;5074871;28;20161;-74
2021/10/01 13:41:11;;;;;;;2.90;1.35;;;18.60;99.90;;;;;;5073925;28;20175;-80
2021/10/01 13:43:37;;;;;;;4.57;1.17;;;18.60;99.90;;;;;;5073963;28;20521;-79
2021/10/01 13:46:06;;;;;;;3.90;0.98;;;18.50;99.90;;;;;;5074822;28;20176;-78
2021/10/01 13:48:32;;;;;;;1.70;0.75;;;18.40;99.90;;;;;;5074989;28;20165;-78
2021/10/01 13:50:58;;;;;;;1.00;1.00;;;18.40;99.90;;;;;;5074867;28;20238;-78
2021/10/01 13:53:25;;;;;;;1.17;1.08;;;18.30;99.90;;;;;;5074611;28;20169;-79
2021/10/01 13:55:51;;;;;;;2.75;1.40;;;18.20;99.90;;;;;;5074786;28;20266;-80
2021/10/01 13:58:17;;;;;;;2.47;1.17;;;18.30;99.90;;;;;;5075041;28;20626;-81
2021/10/01 14:00:43;;;;;;;4.00;1.45;;;18.20;99.90;;;;;;5073361;28;20226;-80
2021/10/01 14:03:09;;;;;;;1.45;1.35;;;18.10;99.90;;;;;;5074747;28;20168;-80
2021/10/01 14:05:35;;;;;;;1.73;1.63;;;18.00;99.90;;;;;;5074594;28;20179;-78
2021/10/01 14:08:01;;;;;;;2.83;1.40;;;17.80;99.90;;;;;;5074358;28;20247;-78
2021/10/01 14:10:30;;;;;;;2.20;1.30;;;17.60;99.90;;;;;;5074210;28;20161;-78
2021/10/01 14:12:56;;;;;;;3.72;1.13;;;17.60;99.90;;;;;;5074123;28;20629;-77
2021/10/01 14:15:24;;;;;;;1.67;1.20;;;17.50;99.90;;;;;;5074189;28;20183;-77
2021/10/01 14:17:51;;;;;;;4.03;1.45;;;17.50;99.90;;;;;;5074064;28;20746;-76
2021/10/01 14:20:18;;;;;;;3.33;1.30;;;17.40;99.90;;;;;;5074107;28;20177;-76
2021/10/01 14:22:45;;;;;;;2.08;1.20;;;17.30;99.90;;;;;;5074242;28;20187;-76
2021/10/01 14:25:12;;;;;;;1.33;1.23;;;17.10;99.90;;;;;;5074122;28;20606;-77
2021/10/01 14:27:38;;;;;;;1.17;1.08;;;17.10;99.90;;;;;;5073911;28;20188;-81
2021/10/01 14:30:09;;;;;;;5.30;1.23;;;17.00;99.90;;;;;;5073986;28;20168;-80
2021/10/01 14:32:34;;;;;;;6.03;1.92;;;17.00;99.90;;;;;;5074030;28;20179;-80
2021/10/01 14:35:02;;;;;;;2.88;1.38;;;17.00;99.90;;;;;;5074111;28;20191;-81
2021/10/01 14:37:28;;;;;;;3.00;1.30;;;16.90;99.90;;;;;;5073933;28;20317;-80
2021/10/01 14:39:53;;;;;;;2.05;1.13;;;16.90;99.90;;;;;;5074185;28;20196;-79
2021/10/01 14:42:19;;;;;;;2.92;1.58;;;17.00;99.90;;;;;;5073868;28;20168;-79
2021/10/01 14:44:45;;;;;;;1.67;1.10;;;16.80;99.90;;;;;;5073773;28;20170;-79
2021/10/01 14:47:11;;;;;;;1.45;1.15;;;16.90;99.90;;;;;;5073693;28;20594;-79
2021/10/01 14:49:37;;;;;;;4.30;1.40;;;16.80;99.90;;;;;;5073747;28;20225;-79
2021/10/01 14:52:03;;;;;;;1.85;1.23;;;16.80;99.90;;;;;;5073598;28;20169;-80
2021/10/01 14:54:28;;;;;;;1.75;1.65;;;16.90;99.90;;;;;;5074097;28;20673;-80
2021/10/01 14:56:55;;;;;;;1.40;1.30;;;17.00;99.90;;;;;;5073765;28;20275;-80
2021/10/01 14:59:20;;;;;;;1.38;1.20;;;16.90;99.90;;;;;;5072519;28;20161;-79
2021/10/01 15:01:46;;;;;;;3.28;1.23;;;16.90;99.90;;;;;;5072740;28;20176;-80
2021/10/01 15:04:12;;;;;;;3.00;1.20;;;16.80;99.90;;;;;;5073780;28;20670;-81
2021/10/01 15:06:38;;;;;;;5.18;1.23;;;17.00;99.90;;;;;;5072465;28;20176;-80
2021/10/01 15:09:05;;;;;;;2.20;1.20;;;17.10;99.90;;;;;;5073802;28;20562;-81
2021/10/01 15:11:31;;;;;;;1.42;1.33;;;16.70;99.90;;;;;;5073833;28;20160;-80
2021/10/01 15:13:57;;;;;;;3.05;1.38;;;16.70;99.90;;;;;;5073601;28;20267;-80
2021/10/01 15:16:22;;;;;;;3.63;1.27;;;16.60;99.90;;;;;;5073527;28;20303;-82
2021/10/01 15:18:48;;;;;;;1.48;1.20;;;16.60;99.90;;;;;;5072746;28;20200;-80
2021/10/01 15:21:14;;;;;;;1.25;1.15;;;16.60;99.90;;;;;;5073653;28;20160;-80
2021/10/01 15:23:40;;;;;;;1.40;1.30;;;16.60;99.90;;;;;;5073425;28;20191;-72
2021/10/01 15:26:06;;;;;;;3.22;1.35;;;16.60;99.90;;;;;;5073489;28;20641;-72
2021/10/01 15:28:32;;;;;;;1.17;1.17;;;16.50;99.90;;;;;;5073201;28;20192;-73
2021/10/01 15:30:57;;;;;;;2.10;1.70;;;16.60;99.90;;;;;;5072130;28;20183;-73
2021/10/01 15:33:23;;;;;;;1.77;1.48;;;16.50;99.90;;;;;;5073221;28;20180;-73
2021/10/01 15:35:49;;;;;;;2.20;1.20;;;16.50;99.90;;;;;;5072114;28;20539;-73
2021/10/01 15:38:15;;;;;;;3.13;1.17;;;16.50;99.90;;;;;;5073101;28;20239;-73
2021/10/01 15:40:45;;;;;;;3.13;1.30;;;16.50;99.90;;;;;;5073152;28;20305;-73
2021/10/01 15:43:12;;;;;;;2.50;1.35;;;16.50;99.90;;;;;;5073144;28;20169;-73
2021/10/01 15:45:40;;;;;;;1.20;1.20;;;16.40;99.90;;;;;;5072932;28;20211;-73
2021/10/01 15:48:06;;;;;;;3.22;1.60;;;16.40;99.90;;;;;;5072916;28;20239;-73
2021/10/01 15:50:32;;;;;;;2.70;1.20;;;16.30;99.90;;;;;;5073027;28;20251;-74
2021/10/01 15:52:58;;;;;;;1.50;1.50;;;16.30;99.90;;;;;;5073004;28;20169;-73
2021/10/01 15:55:25;;;;;;;7.13;3.10;;;16.20;99.90;;;;;;5072935;28;20165;-73
2021/10/01 15:57:51;;;;;;;2.45;2.22;;;16.10;99.90;;;;;;5072828;28;20232;-74
2021/10/01 16:00:18;;;;;;;1.98;1.33;;;16.10;99.90;;;;;;5073165;28;20161;-74
2021/10/01 16:02:45;;;;;;;1.70;1.60;;;16.00;99.90;;;;;;5073678;28;20160;-76
2021/10/01 16:05:13;;;;;;;2.67;2.47;;;15.90;99.90;;;;;;5076042;28;20301;-77
2021/10/01 16:07:39;;;;;;;2.10;1.20;;;15.80;99.90;;;;;;5075747;28;20176;-77
2021/10/01 16:10:07;;;;;;;3.25;1.30;;;15.70;99.90;;;;;;5075712;28;20183;-78
2021/10/01 16:12:33;;;;;;;3.40;1.10;;;15.70;99.90;;;;;;5077134;28;20222;-78
2021/10/01 16:14:59;;;;;;;1.27;1.20;;;15.60;99.90;;;;;;5077041;28;20168;-78
2021/10/01 16:17:25;;;;;;;1.20;1.10;;;15.60;99.90;;;;;;5075286;28;20227;-78
2021/10/01 16:19:51;;;;;;;1.48;1.38;;;15.50;99.90;;;;;;5076819;28;20171;-78
2021/10/01 16:22:18;;;;;;;3.95;1.75;;;15.50;99.90;;;;;;5076737;28;20172;-78
2021/10/01 16:24:48;;;;;;;3.85;1.70;;;15.40;99.90;;;;;;5075195;28;20172;-78
